sensor_id;sensor_type;location;lat;lon;timestamp;temperature;humidity
67273;DHT22;54190;49.770;9.250;2022-10-31T00:02:25;10.30;99.90
67273;DHT22;54190;49.770;9.250;2022-10-31T00:04:51;10.20;99.90
67273;DHT22;54190;49.770;9.250;2022-10-31T00:07:16;10.10;99.90
67273;DHT22;54190;49.770;9.250;2022-10-31T00:09:42;10.10;99.90
67273;DHT22;54190;49.770;9.250;2022-10-31T00:12:08;10.10;99.90
67273;DHT22;54190;49.770;9.250;2022-10-31T00:14:33;10.10;99.90
67273;DHT22;54190;49.770;9.250;2022-10-31T00:16:59;10.10;99.90
67273;DHT22;54190;49.770;9.250;2022-10-31T00:19:25;10.10;99.90
67273;DHT22;54190;49.770;9.250;2022-10-31T00:21:53;10.10;99.90
67273;DHT22;54190;49.770;9.250;2022-10-31T00:24:19;10.00;99.90
67273;DHT22;54190;49.770;9.250;2022-10-31T00:26:45;10.00;99.90
67273;DHT22;54190;49.770;9.250;2022-10-31T00:29:10;10.00;99.90
67273;DHT22;54190;49.770;9.250;2022-10-31T00:31:38;9.90;99.90
67273;DHT22;54190;49.770;9.250;2022-10-31T00:34:04;9.80;99.90
67273;DHT22;54190;49.770;9.250;2022-10-31T00:36:30;9.90;99.90
67273;DHT22;54190;49.770;9.250;2022-10-31T00:38:57;9.80;99.90
67273;DHT22;54190;49.770;9.250;2022-10-31T00:41:23;9.70;99.90
67273;DHT22;54190;49.770;9.250;2022-10-31T00:43:49;9.70;99.90
67273;DHT22;54190;49.770;9.250;2022-10-31T00:46:14;9.70;99.90
67273;DHT22;54190;49.770;9.250;2022-10-31T00:48:41;9.70;99.90
67273;DHT22;54190;49.770;9.250;2022-10-31T00:51:07;9.70;99.90
67273;DHT22;54190;49.770;9.250;2022-10-31T00:53:33;9.70;99.90
67273;DHT22;54190;49.770;9.250;2022-10-31T00:55:59;9.70;99.90
67273;DHT22;54190;49.770;9.250;2022-10-31T00:58:25;9.60;99.90
67273;DHT22;54190;49.770;9.250;2022-10-31T01:00:52;9.60;99.90
67273;DHT22;54190;49.770;9.250;2022-10-31T01:03:27;9.60;99.90
67273;DHT22;54190;49.770;9.250;2022-10-31T01:08:23;9.60;99.90
67273;DHT22;54190;49.770;9.250;2022-10-31T01:11:24;9.60;99.90
67273;DHT22;54190;49.770;9.250;2022-10-31T01:13:52;9.70;99.90
67273;DHT22;54190;49.770;9.250;2022-10-31T01:16:19;9.60;99.90
67273;DHT22;54190;49.770;9.250;2022-10-31T01:18:46;9.60;99.90
67273;DHT22;54190;49.770;9.250;2022-10-31T01:21:15;9.50;99.90
67273;DHT22;54190;49.770;9.250;2022-10-31T01:23:41;9.50;99.90
67273;DHT22;54190;49.770;9.250;2022-10-31T01:28:36;9.50;99.90
67273;DHT22;54190;49.770;9.250;2022-10-31T01:31:07;9.40;99.90
67273;DHT22;54190;49.770;9.250;2022-10-31T01:33:34;9.40;99.90
67273;DHT22;54190;49.770;9.250;2022-10-31T01:36:01;9.30;99.90
67273;DHT22;54190;49.770;9.250;2022-10-31T01:38:27;9.40;99.90
67273;DHT22;54190;49.770;9.250;2022-10-31T01:40:53;9.30;99.90
67273;DHT22;54190;49.770;9.250;2022-10-31T01:43:19;9.30;99.90
67273;DHT22;54190;49.770;9.250;2022-10-31T01:45:51;9.30;99.90
67273;DHT22;54190;49.770;9.250;2022-10-31T01:48:20;9.30;99.90
67273;DHT22;54190;49.770;9.250;2022-10-31T01:50:51;9.20;99.90
67273;DHT22;54190;49.770;9.250;2022-10-31T01:53:18;9.20;99.90
67273;DHT22;54190;49.770;9.250;2022-10-31T01:55:46;9.10;99.90
67273;DHT22;54190;49.770;9.250;2022-10-31T01:58:22;9.20;99.90
67273;DHT22;54190;49.770;9.250;2022-10-31T02:00:50;9.20;99.90
67273;DHT22;54190;49.770;9.250;2022-10-31T02:03:17;9.20;99.90
67273;DHT22;54190;49.770;9.250;2022-10-31T02:05:44;9.20;99.90
67273;DHT22;54190;49.770;9.250;2022-10-31T02:08:29;9.10;99.90
67273;DHT22;54190;49.770;9.250;2022-10-31T02:10:57;9.10;99.90
67273;DHT22;54190;49.770;9.250;2022-10-31T02:13:24;9.10;99.90
67273;DHT22;54190;49.770;9.250;2022-10-31T02:15:53;9.20;99.90
67273;DHT22;54190;49.770;9.250;2022-10-31T02:18:20;9.10;99.90
67273;DHT22;54190;49.770;9.250;2022-10-31T02:21:11;9.10;99.90
67273;DHT22;54190;49.770;9.250;2022-10-31T02:26:51;9.00;99.90
67273;DHT22;54190;49.770;9.250;2022-10-31T02:37:46;9.00;99.90
67273;DHT22;54190;49.770;9.250;2022-10-31T02:40:22;9.00;99.90
67273;DHT22;54190;49.770;9.250;2022-10-31T02:43:32;9.10;99.90
67273;DHT22;54190;49.770;9.250;2022-10-31T02:46:08;9.10;99.90
67273;DHT22;54190;49.770;9.250;2022-10-31T02:48:39;9.10;99.90
67273;DHT22;54190;49.770;9.250;2022-10-31T02:51:05;9.00;99.90
67273;DHT22;54190;49.770;9.250;2022-10-31T02:53:36;9.00;99.90
67273;DHT22;54190;49.770;9.250;2022-10-31T02:58:38;9.00;99.90
67273;DHT22;54190;49.770;9.250;2022-10-31T03:09:13;9.10;99.90
67273;DHT22;54190;49.770;9.250;2022-10-31T03:11:58;9.10;99.90
67273;DHT22;54190;49.770;9.250;2022-10-31T03:14:48;9.10;99.90
67273;DHT22;54190;49.770;9.250;2022-10-31T03:17:49;9.10;99.90
67273;DHT22;54190;49.770;9.250;2022-10-31T03:20:16;9.10;99.90
67273;DHT22;54190;49.770;9.250;2022-10-31T03:22:48;9.10;99.90
67273;DHT22;54190;49.770;9.250;2022-10-31T03:25:14;9.10;99.90
67273;DHT22;54190;49.770;9.250;2022-10-31T03:27:42;9.10;99.90
67273;DHT22;54190;49.770;9.250;2022-10-31T03:30:09;9.00;99.90
67273;DHT22;54190;49.770;9.250;2022-10-31T03:32:55;9.00;99.90
67273;DHT22;54190;49.770;9.250;2022-10-31T03:35:24;8.90;99.90
67273;DHT22;54190;49.770;9.250;2022-10-31T03:37:53;8.90;99.90
67273;DHT22;54190;49.770;9.250;2022-10-31T03:40:21;8.90;99.90
67273;DHT22;54190;49.770;9.250;2022-10-31T03:42:54;8.90;99.90
67273;DHT22;54190;49.770;9.250;2022-10-31T03:45:24;8.80;99.90
67273;DHT22;54190;49.770;9.250;2022-10-31T03:47:52;8.80;99.90
67273;DHT22;54190;49.770;9.250;2022-10-31T03:50:19;8.80;99.90
67273;DHT22;54190;49.770;9.250;2022-10-31T03:53:10;8.80;99.90
67273;DHT22;54190;49.770;9.250;2022-10-31T03:55:50;8.80;99.90
67273;DHT22;54190;49.770;9.250;2022-10-31T03:58:25;8.80;99.90
67273;DHT22;54190;49.770;9.250;2022-10-31T04:00:54;8.70;99.90
67273;DHT22;54190;49.770;9.250;2022-10-31T04:03:28;8.80;99.90
67273;DHT22;54190;49.770;9.250;2022-10-31T04:05:59;8.80;99.90
67273;DHT22;54190;49.770;9.250;2022-10-31T04:08:30;8.70;99.90
67273;DHT22;54190;49.770;9.250;2022-10-31T04:10:59;8.70;99.90
67273;DHT22;54190;49.770;9.250;2022-10-31T04:13:28;8.70;99.90
67273;DHT22;54190;49.770;9.250;2022-10-31T04:16:04;8.60;99.90
67273;DHT22;54190;49.770;9.250;2022-10-31T04:18:31;8.70;99.90
67273;DHT22;54190;49.770;9.250;2022-10-31T04:21:06;8.70;99.90
67273;DHT22;54190;49.770;9.250;2022-10-31T04:23:33;8.70;99.90
67273;DHT22;54190;49.770;9.250;2022-10-31T04:26:03;8.70;99.90
67273;DHT22;54190;49.770;9.250;2022-10-31T04:28:28;8.60;99.90
67273;DHT22;54190;49.770;9.250;2022-10-31T04:30:54;8.60;99.90
67273;DHT22;54190;49.770;9.250;2022-10-31T04:33:21;8.60;99.90
67273;DHT22;54190;49.770;9.250;2022-10-31T04:35:47;8.60;99.90
67273;DHT22;54190;49.770;9.250;2022-10-31T04:38:13;8.60;99.90
67273;DHT22;54190;49.770;9.250;2022-10-31T04:40:39;8.50;99.90
67273;DHT22;54190;49.770;9.250;2022-10-31T04:43:30;8.50;99.90
67273;DHT22;54190;49.770;9.250;2022-10-31T04:45:59;8.50;99.90
67273;DHT22;54190;49.770;9.250;2022-10-31T04:48:25;8.40;99.90
67273;DHT22;54190;49.770;9.250;2022-10-31T04:50:50;8.40;99.90
67273;DHT22;54190;49.770;9.250;2022-10-31T04:53:16;8.40;99.90
67273;DHT22;54190;49.770;9.250;2022-10-31T04:56:00;8.50;99.90
67273;DHT22;54190;49.770;9.250;2022-10-31T04:58:34;8.50;99.90
67273;DHT22;54190;49.770;9.250;2022-10-31T05:01:00;8.50;99.90
67273;DHT22;54190;49.770;9.250;2022-10-31T05:03:25;8.50;99.90
67273;DHT22;54190;49.770;9.250;2022-10-31T05:05:51;8.50;99.90
67273;DHT22;54190;49.770;9.250;2022-10-31T05:08:17;8.50;99.90
67273;DHT22;54190;49.770;9.250;2022-10-31T05:10:43;8.50;99.90
67273;DHT22;54190;49.770;9.250;2022-10-31T05:13:09;8.50;99.90
67273;DHT22;54190;49.770;9.250;2022-10-31T05:15:53;8.50;99.90
67273;DHT22;54190;49.770;9.250;2022-10-31T05:18:21;8.50;99.90
67273;DHT22;54190;49.770;9.250;2022-10-31T05:21:05;8.50;99.90
67273;DHT22;54190;49.770;9.250;2022-10-31T05:23:35;8.50;99.90
67273;DHT22;54190;49.770;9.250;2022-10-31T05:26:02;8.50;99.90
67273;DHT22;54190;49.770;9.250;2022-10-31T05:28:27;8.60;99.90
67273;DHT22;54190;49.770;9.250;2022-10-31T05:30:53;8.60;99.90
67273;DHT22;54190;49.770;9.250;2022-10-31T05:33:20;8.60;99.90
67273;DHT22;54190;49.770;9.250;2022-10-31T05:36:12;8.60;99.90
67273;DHT22;54190;49.770;9.250;2022-10-31T05:38:44;8.60;99.90
67273;DHT22;54190;49.770;9.250;2022-10-31T05:41:23;8.60;99.90
67273;DHT22;54190;49.770;9.250;2022-10-31T05:43:49;8.80;99.90
67273;DHT22;54190;49.770;9.250;2022-10-31T05:46:17;8.70;99.90
67273;DHT22;54190;49.770;9.250;2022-10-31T05:49:01;8.80;99.90
67273;DHT22;54190;49.770;9.250;2022-10-31T05:51:47;8.80;99.90
67273;DHT22;54190;49.770;9.250;2022-10-31T05:54:13;8.80;99.90
67273;DHT22;54190;49.770;9.250;2022-10-31T05:56:39;8.80;99.90
67273;DHT22;54190;49.770;9.250;2022-10-31T05:59:05;8.90;99.90
67273;DHT22;54190;49.770;9.250;2022-10-31T06:01:30;8.90;99.90
67273;DHT22;54190;49.770;9.250;2022-10-31T06:04:03;8.90;99.90
67273;DHT22;54190;49.770;9.250;2022-10-31T06:06:29;8.90;99.90
67273;DHT22;54190;49.770;9.250;2022-10-31T06:08:54;8.90;99.90
67273;DHT22;54190;49.770;9.250;2022-10-31T06:11:21;8.90;99.90
67273;DHT22;54190;49.770;9.250;2022-10-31T06:14:02;9.00;99.90
67273;DHT22;54190;49.770;9.250;2022-10-31T06:16:34;8.90;99.90
67273;DHT22;54190;49.770;9.250;2022-10-31T06:19:17;9.00;99.90
67273;DHT22;54190;49.770;9.250;2022-10-31T06:21:43;9.00;99.90
67273;DHT22;54190;49.770;9.250;2022-10-31T06:24:09;9.00;99.90
67273;DHT22;54190;49.770;9.250;2022-10-31T06:26:54;8.90;99.90
67273;DHT22;54190;49.770;9.250;2022-10-31T06:29:20;9.00;99.90
67273;DHT22;54190;49.770;9.250;2022-10-31T06:32:18;9.00;99.90
67273;DHT22;54190;49.770;9.250;2022-10-31T06:34:45;9.00;99.90
67273;DHT22;54190;49.770;9.250;2022-10-31T06:37:14;9.00;99.90
67273;DHT22;54190;49.770;9.250;2022-10-31T06:39:43;9.00;99.90
67273;DHT22;54190;49.770;9.250;2022-10-31T06:42:10;9.10;99.90
67273;DHT22;54190;49.770;9.250;2022-10-31T06:44:36;9.00;99.90
67273;DHT22;54190;49.770;9.250;2022-10-31T06:47:24;9.00;99.90
67273;DHT22;54190;49.770;9.250;2022-10-31T06:50:04;9.00;99.90
67273;DHT22;54190;49.770;9.250;2022-10-31T06:52:30;9.00;99.90
67273;DHT22;54190;49.770;9.250;2022-10-31T06:54:56;9.00;99.90
67273;DHT22;54190;49.770;9.250;2022-10-31T06:57:22;9.00;99.90
67273;DHT22;54190;49.770;9.250;2022-10-31T06:59:48;9.00;99.90
67273;DHT22;54190;49.770;9.250;2022-10-31T07:02:20;9.00;99.90
67273;DHT22;54190;49.770;9.250;2022-10-31T07:04:47;9.00;99.90
67273;DHT22;54190;49.770;9.250;2022-10-31T07:07:14;9.00;99.90
67273;DHT22;54190;49.770;9.250;2022-10-31T07:09:40;9.00;99.90
67273;DHT22;54190;49.770;9.250;2022-10-31T07:12:08;9.10;99.90
67273;DHT22;54190;49.770;9.250;2022-10-31T07:14:37;9.10;99.90
67273;DHT22;54190;49.770;9.250;2022-10-31T07:17:03;9.10;99.90
67273;DHT22;54190;49.770;9.250;2022-10-31T07:19:36;9.00;99.90
67273;DHT22;54190;49.770;9.250;2022-10-31T07:22:02;9.00;99.90
67273;DHT22;54190;49.770;9.250;2022-10-31T07:24:29;9.00;99.90
67273;DHT22;54190;49.770;9.250;2022-10-31T07:27:22;9.00;99.90
67273;DHT22;54190;49.770;9.250;2022-10-31T07:29:48;9.00;99.90
67273;DHT22;54190;49.770;9.250;2022-10-31T07:32:14;9.00;99.90
67273;DHT22;54190;49.770;9.250;2022-10-31T07:34:46;9.00;99.90
67273;DHT22;54190;49.770;9.250;2022-10-31T07:37:18;9.00;99.90
67273;DHT22;54190;49.770;9.250;2022-10-31T07:39:44;9.10;99.90
67273;DHT22;54190;49.770;9.250;2022-10-31T07:42:09;9.10;99.90
67273;DHT22;54190;49.770;9.250;2022-10-31T07:44:36;9.10;99.90
67273;DHT22;54190;49.770;9.250;2022-10-31T07:47:22;9.20;99.90
67273;DHT22;54190;49.770;9.250;2022-10-31T07:50:10;9.20;99.90
67273;DHT22;54190;49.770;9.250;2022-10-31T07:53:12;9.20;99.90
67273;DHT22;54190;49.770;9.250;2022-10-31T07:55:41;9.20;99.90
67273;DHT22;54190;49.770;9.250;2022-10-31T08:00:39;9.20;99.90
67273;DHT22;54190;49.770;9.250;2022-10-31T08:03:07;9.10;99.90
67273;DHT22;54190;49.770;9.250;2022-10-31T08:05:52;9.20;99.90
67273;DHT22;54190;49.770;9.250;2022-10-31T08:08:42;9.20;99.90
67273;DHT22;54190;49.770;9.250;2022-10-31T08:11:08;9.30;99.90
67273;DHT22;54190;49.770;9.250;2022-10-31T08:13:34;9.40;99.90
67273;DHT22;54190;49.770;9.250;2022-10-31T08:16:00;9.40;99.90
67273;DHT22;54190;49.770;9.250;2022-10-31T08:18:31;9.50;99.90
67273;DHT22;54190;49.770;9.250;2022-10-31T08:20:57;9.50;99.90
67273;DHT22;54190;49.770;9.250;2022-10-31T08:23:23;9.50;99.90
67273;DHT22;54190;49.770;9.250;2022-10-31T08:25:53;9.50;99.90
67273;DHT22;54190;49.770;9.250;2022-10-31T08:28:19;9.50;99.90
67273;DHT22;54190;49.770;9.250;2022-10-31T08:30:48;9.50;99.90
67273;DHT22;54190;49.770;9.250;2022-10-31T08:33:32;9.50;99.90
67273;DHT22;54190;49.770;9.250;2022-10-31T08:36:16;9.50;99.90
67273;DHT22;54190;49.770;9.250;2022-10-31T08:38:52;9.60;99.90
67273;DHT22;54190;49.770;9.250;2022-10-31T08:41:18;9.80;99.90
67273;DHT22;54190;49.770;9.250;2022-10-31T08:43:44;9.80;99.90
67273;DHT22;54190;49.770;9.250;2022-10-31T08:46:11;9.80;99.90
67273;DHT22;54190;49.770;9.250;2022-10-31T08:48:39;9.80;99.90
67273;DHT22;54190;49.770;9.250;2022-10-31T08:51:05;9.80;99.90
67273;DHT22;54190;49.770;9.250;2022-10-31T08:53:31;9.90;99.90
67273;DHT22;54190;49.770;9.250;2022-10-31T08:56:16;9.90;99.90
67273;DHT22;54190;49.770;9.250;2022-10-31T08:58:41;9.90;99.90
67273;DHT22;54190;49.770;9.250;2022-10-31T09:01:08;10.00;99.90
67273;DHT22;54190;49.770;9.250;2022-10-31T09:03:35;10.00;99.90
67273;DHT22;54190;49.770;9.250;2022-10-31T09:06:02;10.10;99.90
67273;DHT22;54190;49.770;9.250;2022-10-31T09:08:32;10.10;99.90
67273;DHT22;54190;49.770;9.250;2022-10-31T09:10:59;10.10;99.90
67273;DHT22;54190;49.770;9.250;2022-10-31T09:13:44;10.10;99.90
67273;DHT22;54190;49.770;9.250;2022-10-31T09:16:30;10.20;99.90
67273;DHT22;54190;49.770;9.250;2022-10-31T09:18:55;10.10;99.90
67273;DHT22;54190;49.770;9.250;2022-10-31T09:21:21;10.10;99.90
67273;DHT22;54190;49.770;9.250;2022-10-31T09:23:47;10.20;99.90
67273;DHT22;54190;49.770;9.250;2022-10-31T09:26:14;10.20;99.90
67273;DHT22;54190;49.770;9.250;2022-10-31T09:28:43;10.20;99.90
67273;DHT22;54190;49.770;9.250;2022-10-31T09:31:15;10.20;99.90
67273;DHT22;54190;49.770;9.250;2022-10-31T09:33:53;10.30;99.90
67273;DHT22;54190;49.770;9.250;2022-10-31T09:36:43;10.40;99.90
67273;DHT22;54190;49.770;9.250;2022-10-31T09:39:17;10.50;99.90
67273;DHT22;54190;49.770;9.250;2022-10-31T09:51:04;10.90;99.90
67273;DHT22;54190;49.770;9.250;2022-10-31T09:56:21;11.10;99.90
67273;DHT22;54190;49.770;9.250;2022-10-31T09:58:57;11.10;99.90
67273;DHT22;54190;49.770;9.250;2022-10-31T10:01:49;11.20;99.90
67273;DHT22;54190;49.770;9.250;2022-10-31T10:07:22;11.40;99.90
67273;DHT22;54190;49.770;9.250;2022-10-31T10:10:14;11.40;99.90
67273;DHT22;54190;49.770;9.250;2022-10-31T10:21:49;12.10;99.90
67273;DHT22;54190;49.770;9.250;2022-10-31T10:30:03;12.50;99.90
67273;DHT22;54190;49.770;9.250;2022-10-31T10:32:43;12.70;99.90
67273;DHT22;54190;49.770;9.250;2022-10-31T10:37:56;13.00;99.90
67273;DHT22;54190;49.770;9.250;2022-10-31T10:40:26;13.10;99.90
67273;DHT22;54190;49.770;9.250;2022-10-31T10:48:44;13.30;99.90
67273;DHT22;54190;49.770;9.250;2022-10-31T10:51:20;13.30;99.90
67273;DHT22;54190;49.770;9.250;2022-10-31T10:57:38;13.50;99.90
67273;DHT22;54190;49.770;9.250;2022-10-31T11:00:23;13.60;99.90
67273;DHT22;54190;49.770;9.250;2022-10-31T11:02:51;13.70;99.90
67273;DHT22;54190;49.770;9.250;2022-10-31T11:08:05;13.80;99.90
67273;DHT22;54190;49.770;9.250;2022-10-31T11:10:33;13.90;99.90
67273;DHT22;54190;49.770;9.250;2022-10-31T11:13:01;13.90;99.90
67273;DHT22;54190;49.770;9.250;2022-10-31T11:15:35;13.90;99.90
67273;DHT22;54190;49.770;9.250;2022-10-31T11:18:19;14.00;99.90
67273;DHT22;54190;49.770;9.250;2022-10-31T11:20:53;14.10;99.90
67273;DHT22;54190;49.770;9.250;2022-10-31T11:23:32;14.10;99.90
67273;DHT22;54190;49.770;9.250;2022-10-31T11:26:15;14.20;99.90
67273;DHT22;54190;49.770;9.250;2022-10-31T11:29:13;14.30;99.90
67273;DHT22;54190;49.770;9.250;2022-10-31T11:31:40;14.40;99.90
67273;DHT22;54190;49.770;9.250;2022-10-31T11:34:26;14.60;99.90
67273;DHT22;54190;49.770;9.250;2022-10-31T11:37:31;14.60;99.90
67273;DHT22;54190;49.770;9.250;2022-10-31T11:39:54;14.70;99.90
67273;DHT22;54190;49.770;9.250;2022-10-31T11:42:26;14.80;99.90
67273;DHT22;54190;49.770;9.250;2022-10-31T11:44:57;14.90;99.90
67273;DHT22;54190;49.770;9.250;2022-10-31T11:47:29;14.90;99.90
67273;DHT22;54190;49.770;9.250;2022-10-31T11:50:02;14.90;99.90
67273;DHT22;54190;49.770;9.250;2022-10-31T11:52:38;15.00;99.90
67273;DHT22;54190;49.770;9.250;2022-10-31T11:55:30;15.10;99.90
67273;DHT22;54190;49.770;9.250;2022-10-31T11:57:57;15.20;99.90
67273;DHT22;54190;49.770;9.250;2022-10-31T12:00:28;15.30;99.90
67273;DHT22;54190;49.770;9.250;2022-10-31T12:03:41;15.30;99.90
67273;DHT22;54190;49.770;9.250;2022-10-31T12:06:30;15.40;99.90
67273;DHT22;54190;49.770;9.250;2022-10-31T12:08:57;15.50;99.90
67273;DHT22;54190;49.770;9.250;2022-10-31T12:14:25;15.60;99.90
67273;DHT22;54190;49.770;9.250;2022-10-31T12:19:30;15.70;99.90
67273;DHT22;54190;49.770;9.250;2022-10-31T12:24:56;15.70;99.90
67273;DHT22;54190;49.770;9.250;2022-10-31T12:41:47;15.90;99.90
67273;DHT22;54190;49.770;9.250;2022-10-31T12:50:08;16.00;99.90
67273;DHT22;54190;49.770;9.250;2022-10-31T12:58:51;16.00;99.90
67273;DHT22;54190;49.770;9.250;2022-10-31T13:01:45;16.00;99.90
67273;DHT22;54190;49.770;9.250;2022-10-31T13:04:42;16.00;99.90
67273;DHT22;54190;49.770;9.250;2022-10-31T13:07:24;16.00;99.90
67273;DHT22;54190;49.770;9.250;2022-10-31T13:12:28;16.30;99.90
67273;DHT22;54190;49.770;9.250;2022-10-31T13:18:06;16.30;99.90
67273;DHT22;54190;49.770;9.250;2022-10-31T13:20:44;16.30;99.90
67273;DHT22;54190;49.770;9.250;2022-10-31T13:23:34;16.40;99.90
67273;DHT22;54190;49.770;9.250;2022-10-31T13:31:51;16.40;99.90
67273;DHT22;54190;49.770;9.250;2022-10-31T13:34:29;16.30;99.90
67273;DHT22;54190;49.770;9.250;2022-10-31T13:37:35;16.30;99.90
67273;DHT22;54190;49.770;9.250;2022-10-31T13:40:15;16.20;99.90
67273;DHT22;54190;49.770;9.250;2022-10-31T13:43:10;16.10;99.90
67273;DHT22;54190;49.770;9.250;2022-10-31T13:45:48;16.00;99.90
67273;DHT22;54190;49.770;9.250;2022-10-31T13:48:17;15.90;99.90
67273;DHT22;54190;49.770;9.250;2022-10-31T13:51:00;15.80;99.90
67273;DHT22;54190;49.770;9.250;2022-10-31T13:53:57;15.70;99.90
67273;DHT22;54190;49.770;9.250;2022-10-31T13:56:28;15.70;99.90
67273;DHT22;54190;49.770;9.250;2022-10-31T13:59:17;15.60;99.90
67273;DHT22;54190;49.770;9.250;2022-10-31T14:01:53;15.60;99.90
67273;DHT22;54190;49.770;9.250;2022-10-31T14:04:24;15.50;99.90
67273;DHT22;54190;49.770;9.250;2022-10-31T14:07:08;15.50;99.90
67273;DHT22;54190;49.770;9.250;2022-10-31T14:12:39;15.50;99.90
67273;DHT22;54190;49.770;9.250;2022-10-31T14:15:22;15.50;99.90
67273;DHT22;54190;49.770;9.250;2022-10-31T14:18:01;15.60;99.90
67273;DHT22;54190;49.770;9.250;2022-10-31T14:28:58;15.70;99.90
67273;DHT22;54190;49.770;9.250;2022-10-31T14:31:37;15.80;99.90
67273;DHT22;54190;49.770;9.250;2022-10-31T14:34:43;15.80;99.90
67273;DHT22;54190;49.770;9.250;2022-10-31T14:40:16;15.80;99.90
67273;DHT22;54190;49.770;9.250;2022-10-31T14:45:46;15.90;99.90
67273;DHT22;54190;49.770;9.250;2022-10-31T14:50:59;16.00;99.90
67273;DHT22;54190;49.770;9.250;2022-10-31T14:56:26;16.00;99.90
67273;DHT22;54190;49.770;9.250;2022-10-31T14:58:57;16.00;99.90
67273;DHT22;54190;49.770;9.250;2022-10-31T15:01:33;15.90;99.90
67273;DHT22;54190;49.770;9.250;2022-10-31T15:04:20;15.80;99.90
67273;DHT22;54190;49.770;9.250;2022-10-31T15:06:51;15.90;99.90
67273;DHT22;54190;49.770;9.250;2022-10-31T15:09:33;15.90;99.90
67273;DHT22;54190;49.770;9.250;2022-10-31T15:12:22;15.90;99.90
67273;DHT22;54190;49.770;9.250;2022-10-31T15:14:50;15.80;99.90
67273;DHT22;54190;49.770;9.250;2022-10-31T15:17:16;15.70;99.90
67273;DHT22;54190;49.770;9.250;2022-10-31T15:19:42;15.60;99.90
67273;DHT22;54190;49.770;9.250;2022-10-31T15:22:16;15.50;99.90
67273;DHT22;54190;49.770;9.250;2022-10-31T15:24:42;15.50;99.90
67273;DHT22;54190;49.770;9.250;2022-10-31T15:27:18;15.60;99.90
67273;DHT22;54190;49.770;9.250;2022-10-31T15:30:28;15.50;99.90
67273;DHT22;54190;49.770;9.250;2022-10-31T15:33:00;15.40;99.90
67273;DHT22;54190;49.770;9.250;2022-10-31T15:36:32;15.30;99.90
67273;DHT22;54190;49.770;9.250;2022-10-31T15:54:10;15.00;99.90
67273;DHT22;54190;49.770;9.250;2022-10-31T16:07:12;14.80;99.90
67273;DHT22;54190;49.770;9.250;2022-10-31T17:03:32;13.70;99.90
67273;DHT22;54190;49.770;9.250;2022-10-31T17:22:26;13.80;99.90
67273;DHT22;54190;49.770;9.250;2022-10-31T17:51:55;13.50;99.90
67273;DHT22;54190;49.770;9.250;2022-10-31T17:54:44;13.50;99.90
67273;DHT22;54190;49.770;9.250;2022-10-31T18:00:19;13.70;99.90
67273;DHT22;54190;49.770;9.250;2022-10-31T18:03:15;13.60;99.90
67273;DHT22;54190;49.770;9.250;2022-10-31T18:13:17;13.50;99.90
67273;DHT22;54190;49.770;9.250;2022-10-31T18:15:44;13.40;99.90
67273;DHT22;54190;49.770;9.250;2022-10-31T18:18:30;13.40;99.90
67273;DHT22;54190;49.770;9.250;2022-10-31T18:21:17;13.30;99.90
67273;DHT22;54190;49.770;9.250;2022-10-31T18:34:40;13.30;99.90
67273;DHT22;54190;49.770;9.250;2022-10-31T18:37:06;13.40;99.90
67273;DHT22;54190;49.770;9.250;2022-10-31T18:39:32;13.40;99.90
67273;DHT22;54190;49.770;9.250;2022-10-31T18:41:57;13.40;99.90
67273;DHT22;54190;49.770;9.250;2022-10-31T18:44:23;13.40;99.90
67273;DHT22;54190;49.770;9.250;2022-10-31T18:46:49;13.40;99.90
67273;DHT22;54190;49.770;9.250;2022-10-31T18:49:15;13.40;99.90
67273;DHT22;54190;49.770;9.250;2022-10-31T18:51:47;13.30;99.90
67273;DHT22;54190;49.770;9.250;2022-10-31T18:54:13;13.30;99.90
67273;DHT22;54190;49.770;9.250;2022-10-31T18:56:39;13.40;99.90
67273;DHT22;54190;49.770;9.250;2022-10-31T18:59:05;13.50;99.90
67273;DHT22;54190;49.770;9.250;2022-10-31T19:01:30;13.60;99.90
67273;DHT22;54190;49.770;9.250;2022-10-31T19:03:57;13.70;99.90
67273;DHT22;54190;49.770;9.250;2022-10-31T19:06:25;13.70;99.90
67273;DHT22;54190;49.770;9.250;2022-10-31T19:08:56;13.70;99.90
67273;DHT22;54190;49.770;9.250;2022-10-31T19:11:23;13.70;99.90
67273;DHT22;54190;49.770;9.250;2022-10-31T19:13:48;13.70;99.90
67273;DHT22;54190;49.770;9.250;2022-10-31T19:16:15;13.70;99.90
67273;DHT22;54190;49.770;9.250;2022-10-31T19:18:42;13.70;99.90
67273;DHT22;54190;49.770;9.250;2022-10-31T19:21:13;13.60;99.90
67273;DHT22;54190;49.770;9.250;2022-10-31T19:23:39;13.60;99.90
67273;DHT22;54190;49.770;9.250;2022-10-31T19:26:05;13.60;99.90
67273;DHT22;54190;49.770;9.250;2022-10-31T19:28:36;13.50;99.90
67273;DHT22;54190;49.770;9.250;2022-10-31T19:31:02;13.50;99.90
67273;DHT22;54190;49.770;9.250;2022-10-31T19:33:28;13.50;99.90
67273;DHT22;54190;49.770;9.250;2022-10-31T19:36:04;13.60;99.90
67273;DHT22;54190;49.770;9.250;2022-10-31T19:38:33;13.60;99.90
67273;DHT22;54190;49.770;9.250;2022-10-31T19:41:01;13.60;99.90
67273;DHT22;54190;49.770;9.250;2022-10-31T19:43:27;13.60;99.90
67273;DHT22;54190;49.770;9.250;2022-10-31T19:45:59;13.60;99.90
67273;DHT22;54190;49.770;9.250;2022-10-31T19:48:26;13.70;99.90
67273;DHT22;54190;49.770;9.250;2022-10-31T19:50:52;13.60;99.90
67273;DHT22;54190;49.770;9.250;2022-10-31T19:53:19;13.60;99.90
67273;DHT22;54190;49.770;9.250;2022-10-31T19:55:45;13.40;99.90
67273;DHT22;54190;49.770;9.250;2022-10-31T19:58:12;13.30;99.90
67273;DHT22;54190;49.770;9.250;2022-10-31T20:00:38;13.10;99.90
67273;DHT22;54190;49.770;9.250;2022-10-31T20:03:04;13.00;99.90
67273;DHT22;54190;49.770;9.250;2022-10-31T20:05:31;12.90;99.90
67273;DHT22;54190;49.770;9.250;2022-10-31T20:07:57;12.80;99.90
67273;DHT22;54190;49.770;9.250;2022-10-31T20:10:23;12.80;99.90
67273;DHT22;54190;49.770;9.250;2022-10-31T20:12:49;12.80;99.90
67273;DHT22;54190;49.770;9.250;2022-10-31T20:15:15;12.80;99.90
67273;DHT22;54190;49.770;9.250;2022-10-31T20:17:41;12.80;99.90
67273;DHT22;54190;49.770;9.250;2022-10-31T20:20:07;12.90;99.90
67273;DHT22;54190;49.770;9.250;2022-10-31T20:22:36;12.80;99.90
67273;DHT22;54190;49.770;9.250;2022-10-31T20:25:03;12.80;99.90
67273;DHT22;54190;49.770;9.250;2022-10-31T20:27:29;12.80;99.90
67273;DHT22;54190;49.770;9.250;2022-10-31T20:29:54;12.80;99.90
67273;DHT22;54190;49.770;9.250;2022-10-31T20:32:20;12.80;99.90
67273;DHT22;54190;49.770;9.250;2022-10-31T20:34:46;12.80;99.90
67273;DHT22;54190;49.770;9.250;2022-10-31T20:37:12;12.80;99.90
67273;DHT22;54190;49.770;9.250;2022-10-31T20:39:38;12.70;99.90
67273;DHT22;54190;49.770;9.250;2022-10-31T20:42:04;12.70;99.90
67273;DHT22;54190;49.770;9.250;2022-10-31T20:44:30;12.70;99.90
67273;DHT22;54190;49.770;9.250;2022-10-31T20:46:56;12.70;99.90
67273;DHT22;54190;49.770;9.250;2022-10-31T20:49:22;12.70;99.90
67273;DHT22;54190;49.770;9.250;2022-10-31T20:51:48;12.70;99.90
67273;DHT22;54190;49.770;9.250;2022-10-31T20:54:14;12.60;99.90
67273;DHT22;54190;49.770;9.250;2022-10-31T20:56:39;12.60;99.90
67273;DHT22;54190;49.770;9.250;2022-10-31T20:59:05;12.50;99.90